createdAt,value
2023-04-21T00:02:18.720Z,102083.94
2023-04-21T00:07:16.218Z,102087.59
2023-04-21T00:12:14.821Z,102082.34
2023-04-21T00:17:11.258Z,102067.84
2023-04-21T00:22:12.126Z,102083.53
2023-04-21T00:27:08.590Z,102072.81
2023-04-21T00:32:08.324Z,102068.44
2023-04-21T00:37:04.770Z,102054.59
2023-04-21T00:42:01.570Z,102067.59
2023-04-21T00:46:58.093Z,102053.09
2023-04-21T00:51:54.976Z,102061.66
2023-04-21T00:56:51.452Z,102058.00
2023-04-21T01:01:48.085Z,102063.50
2023-04-21T01:12:11.799Z,102049.75
2023-04-21T01:17:08.673Z,102054.03
2023-04-21T01:22:06.436Z,102044.31
2023-04-21T01:27:03.345Z,102050.63
2023-04-21T01:32:04.829Z,102042.75
2023-04-21T01:37:01.520Z,102047.09
2023-04-21T01:41:57.962Z,102036.75
2023-04-21T01:46:55.552Z,102048.13
2023-04-21T01:51:52.006Z,102037.56
2023-04-21T01:56:48.570Z,102035.94
2023-04-21T02:01:45.220Z,102026.44
2023-04-21T02:06:41.740Z,102016.75
2023-04-21T02:11:38.189Z,102028.00
2023-04-21T02:16:34.671Z,102040.31
2023-04-21T02:21:32.324Z,102028.81
2023-04-21T02:26:28.817Z,102020.91
2023-04-21T02:31:25.457Z,102024.47
2023-04-21T02:36:22.002Z,102012.47
2023-04-21T02:41:18.527Z,102017.53
2023-04-21T02:46:15.103Z,102016.72
2023-04-21T02:51:13.306Z,102019.31
2023-04-21T02:56:09.907Z,102016.66
2023-04-21T03:01:06.475Z,102019.31
2023-04-21T03:06:04.676Z,102021.97
2023-04-21T03:11:02.189Z,102011.38
2023-04-21T03:15:58.665Z,102009.53
2023-04-21T03:20:59.872Z,102012.06
2023-04-21T03:25:56.428Z,102016.38
2023-04-21T03:30:52.850Z,102001.47
2023-04-21T03:35:49.279Z,102009.47
2023-04-21T03:40:45.784Z,102003.28
2023-04-21T03:45:42.289Z,102007.72
2023-04-21T03:50:38.960Z,102007.69
2023-04-21T03:55:35.397Z,101998.94
2023-04-21T04:00:31.884Z,101995.69
2023-04-21T04:05:28.384Z,102009.56
2023-04-21T04:10:24.814Z,102003.38
2023-04-21T04:15:21.333Z,102003.19
2023-04-21T04:20:17.953Z,101991.91
2023-04-21T04:25:16.976Z,101990.25
2023-04-21T04:30:16.064Z,101994.44
2023-04-21T04:59:44.836Z,102012.25
2023-04-21T05:04:44.880Z,102007.66
2023-04-21T08:40:09.819Z,101929.38
2023-04-21T08:45:21.648Z,101911.94
2023-04-21T08:50:53.089Z,101915.94
2023-04-21T08:56:11.377Z,101908.38
2023-04-21T09:01:19.679Z,101883.66
2023-04-21T09:06:21.768Z,101905.59
2023-04-21T09:11:38.764Z,101884.88
2023-04-21T09:16:38.559Z,101870.34
2023-04-21T09:21:42.985Z,101879.00
2023-04-21T09:26:43.572Z,101876.03
2023-04-21T09:31:44.422Z,101890.56
2023-04-21T09:36:45.507Z,101874.41
2023-04-21T09:41:44.265Z,101891.25
2023-04-21T09:46:48.984Z,101877.16
2023-04-21T09:56:49.616Z,101858.97
2023-04-21T10:01:50.182Z,101860.03
2023-04-21T10:06:48.123Z,101868.28
2023-04-21T10:11:44.628Z,101846.22
2023-04-21T10:16:42.052Z,101840.00
2023-04-21T10:21:38.592Z,101842.66
2023-04-21T10:26:35.339Z,101835.47
2023-04-21T10:31:34.612Z,101821.50
2023-04-21T10:36:34.829Z,101827.19
2023-04-21T10:41:33.953Z,101818.44
2023-04-21T10:46:35.513Z,101816.06
2023-04-21T10:51:33.054Z,101813.44
2023-04-21T10:56:29.643Z,101790.88
2023-04-21T11:01:26.161Z,101782.03
2023-04-21T11:06:22.679Z,101787.22
2023-04-21T11:11:26.740Z,101774.03
2023-04-21T11:16:23.196Z,101770.69
2023-04-21T11:21:22.966Z,101759.59
2023-04-21T11:26:20.982Z,101757.91
2023-04-21T11:31:17.573Z,101760.22
2023-04-21T11:36:15.174Z,101743.41
2023-04-21T11:41:20.809Z,101739.13
2023-04-21T11:46:46.903Z,101719.72
2023-04-21T11:51:51.314Z,101702.00
2023-04-21T11:56:51.554Z,101704.44
2023-04-21T12:01:55.425Z,101692.09
2023-04-21T12:07:09.967Z,101705.59
2023-04-21T12:12:06.441Z,101687.28
2023-04-21T12:17:02.892Z,101686.53
2023-04-21T12:22:04.028Z,101654.78
2023-04-21T12:27:02.077Z,101682.72
2023-04-21T12:32:00.894Z,101668.00
2023-04-21T12:36:57.535Z,101646.72
2023-04-21T12:41:54.063Z,101660.69
2023-04-21T12:46:52.662Z,101656.34
2023-04-21T12:51:49.508Z,101657.16
2023-04-21T13:02:17.493Z,101639.34
2023-04-21T13:07:18.386Z,101625.09
2023-04-21T13:12:26.483Z,101625.69
2023-04-21T13:17:26.203Z,101620.88
2023-04-21T13:22:37.643Z,101611.13
2023-04-21T13:27:38.563Z,101619.00
2023-04-21T13:32:55.511Z,101591.88
2023-04-21T13:37:54.327Z,101599.22
2023-04-21T13:42:53.063Z,101600.06
2023-04-21T13:47:51.783Z,101594.41
2023-04-21T13:52:49.029Z,101581.56
2023-04-21T13:57:45.867Z,101579.84
2023-04-21T14:02:42.898Z,101564.69
2023-04-21T14:08:26.639Z,101555.00
2023-04-21T14:13:35.746Z,101548.53
2023-04-21T14:18:34.291Z,101537.66
2023-04-21T14:23:30.781Z,101529.03
2023-04-21T14:28:30.877Z,101535.00
2023-04-21T14:33:35.233Z,101534.13
2023-04-21T14:38:33.662Z,101531.28
2023-04-21T14:43:30.253Z,101515.00
2023-04-21T14:48:27.193Z,101509.34
2023-04-21T14:53:25.665Z,101501.41
2023-04-21T14:58:31.076Z,101492.44
2023-04-21T15:03:35.212Z,101468.78
2023-04-21T15:08:31.869Z,101488.63
2023-04-21T15:13:28.401Z,101480.69
2023-04-21T15:18:25.008Z,101471.91
2023-04-21T15:23:21.468Z,101463.69
2023-04-21T15:28:17.917Z,101449.50
2023-04-21T15:33:14.728Z,101455.75
2023-04-21T15:38:11.463Z,101446.66
2023-04-21T15:43:08.071Z,101441.28
2023-04-21T15:48:04.611Z,101431.22
2023-04-21T15:53:04.450Z,101436.19
2023-04-21T15:58:01.059Z,101434.63
2023-04-21T16:02:58.603Z,101427.56
2023-04-21T16:07:55.452Z,101428.81
2023-04-21T16:12:52.265Z,101418.31
2023-04-21T16:17:49.309Z,101417.69
2023-04-21T16:22:46.590Z,101414.88
2023-04-21T16:27:44.183Z,101400.13
2023-04-21T16:32:40.801Z,101396.03
2023-04-21T16:37:40.435Z,101393.88
2023-04-21T16:42:37.477Z,101395.88
2023-04-21T16:47:41.729Z,101386.53
2023-04-21T16:52:38.714Z,101395.72
2023-04-21T16:57:35.243Z,101376.31
2023-04-21T17:02:31.815Z,101374.31
2023-04-21T17:07:28.543Z,101387.06
2023-04-21T17:12:25.066Z,101371.19
2023-04-21T17:17:21.512Z,101376.84
2023-04-21T17:22:18.000Z,101379.94
2023-04-21T17:27:14.453Z,101378.81
2023-04-21T17:32:10.980Z,101381.88
2023-04-21T17:37:07.464Z,101373.25
2023-04-21T17:42:04.824Z,101381.03
2023-04-21T17:47:02.103Z,101363.28
2023-04-21T17:51:58.598Z,101368.22
2023-04-21T17:56:55.223Z,101371.53
2023-04-21T18:02:02.274Z,101361.22
2023-04-21T18:07:03.155Z,101370.22
2023-04-21T18:12:00.999Z,101359.69
2023-04-21T18:16:58.102Z,101379.94
2023-04-21T18:21:57.333Z,101381.50
2023-04-21T18:26:56.791Z,101368.66
2023-04-21T18:32:00.538Z,101385.38
2023-04-21T18:36:57.353Z,101389.56
2023-04-21T18:41:56.600Z,101394.94
2023-04-21T18:46:53.889Z,101375.59
2023-04-21T18:51:53.401Z,101366.84
2023-04-21T18:56:49.972Z,101380.78
2023-04-21T19:01:46.685Z,101385.06
2023-04-21T19:06:43.330Z,101382.88
2023-04-21T19:11:39.938Z,101387.16
2023-04-21T19:16:36.659Z,101376.06
2023-04-21T19:21:40.551Z,101386.91
2023-04-21T19:26:39.235Z,101397.63
2023-04-21T19:31:35.790Z,101375.06
2023-04-21T19:36:32.640Z,101398.59
2023-04-21T19:41:29.213Z,101390.75
2023-04-21T19:46:25.724Z,101388.69
2023-04-21T19:51:25.070Z,101388.41
2023-04-21T19:56:21.620Z,101389.00
2023-04-21T20:01:18.009Z,101387.25
2023-04-21T20:06:14.602Z,101385.41
2023-04-21T20:11:11.340Z,101387.56
2023-04-21T20:16:07.897Z,101386.66
2023-04-21T20:21:04.419Z,101380.06
2023-04-21T20:26:01.250Z,101384.50
2023-04-21T20:30:57.823Z,101380.72
2023-04-21T20:35:54.108Z,101381.91
2023-04-21T20:40:53.700Z,101383.41
2023-04-21T20:45:50.725Z,101378.84
2023-04-21T20:50:49.810Z,101380.16
2023-04-21T20:55:51.961Z,101362.88
2023-04-21T21:00:48.577Z,101369.19
2023-04-21T21:05:44.961Z,101385.97
2023-04-21T21:10:41.491Z,101362.28
2023-04-21T21:15:37.955Z,101380.75
2023-04-21T21:20:34.509Z,101361.03
2023-04-21T21:25:30.868Z,101378.22
2023-04-21T21:30:29.705Z,101369.78
2023-04-21T21:35:29.218Z,101357.94
2023-04-21T21:40:28.472Z,101368.19
2023-04-21T21:45:25.009Z,101363.38
2023-04-21T21:50:21.591Z,101362.63
2023-04-21T21:55:20.572Z,101375.88
2023-04-21T22:00:20.570Z,101367.97
2023-04-21T22:05:17.579Z,101361.66
2023-04-21T22:10:14.072Z,101364.84
2023-04-21T22:15:13.918Z,101350.41
2023-04-21T22:20:12.061Z,101360.03
2023-04-21T22:25:09.006Z,101369.97
2023-04-21T22:30:06.151Z,101364.38
2023-04-21T22:35:03.290Z,101361.81
2023-04-21T22:40:00.638Z,101359.66
2023-04-21T22:44:57.134Z,101375.66
2023-04-21T22:49:54.102Z,101359.50
2023-04-21T22:54:50.677Z,101363.16
2023-04-21T22:59:47.149Z,101364.41
2023-04-21T23:04:43.594Z,101360.22
2023-04-21T23:09:40.363Z,101351.81
2023-04-21T23:14:37.034Z,101356.34
2023-04-21T23:19:33.509Z,101349.72
2023-04-21T23:24:30.021Z,101335.31
2023-04-21T23:29:28.859Z,101341.78
2023-04-21T23:34:25.560Z,101324.56
2023-04-21T23:39:22.486Z,101327.69
2023-04-21T23:44:19.125Z,101326.81
2023-04-21T23:49:19.791Z,101317.84
2023-04-21T23:54:19.517Z,101314.38
2023-04-21T23:59:18.472Z,101318.84
